createdAt,value
2023-05-20T00:01:27.892Z,21.70
2023-05-20T00:03:54.495Z,23.40
2023-05-20T00:06:21.096Z,22.00
2023-05-20T00:08:47.585Z,22.40
2023-05-20T00:11:14.070Z,23.80
2023-05-20T00:13:40.508Z,20.90
2023-05-20T00:16:07.187Z,18.60
2023-05-20T00:18:33.682Z,21.10
2023-05-20T00:21:00.184Z,20.60
2023-05-20T00:23:26.599Z,19.10
2023-05-20T00:25:53.027Z,19.20
2023-05-20T00:28:19.840Z,21.60
2023-05-20T00:30:46.494Z,19.90
2023-05-20T00:33:13.354Z,19.60
2023-05-20T00:35:39.949Z,21.20
2023-05-20T00:38:06.385Z,23.50
2023-05-20T00:40:32.834Z,20.80
2023-05-20T00:42:59.303Z,21.80
2023-05-20T00:45:26.049Z,21.40
2023-05-20T00:47:52.860Z,19.70
2023-05-20T00:50:19.466Z,20.60
2023-05-20T00:52:48.223Z,23.90
2023-05-20T00:55:14.925Z,20.40
2023-05-20T00:57:41.424Z,24.20
2023-05-20T01:00:10.524Z,22.70
2023-05-20T01:02:37.191Z,21.40
2023-05-20T01:05:03.928Z,18.90
2023-05-20T01:07:30.963Z,19.20
2023-05-20T01:09:57.450Z,21.20
2023-05-20T01:12:31.586Z,24.80
2023-05-20T01:15:07.950Z,22.00
2023-05-20T01:17:39.992Z,22.30
2023-05-20T01:20:12.528Z,22.50
2023-05-20T01:22:47.815Z,22.20
2023-05-20T01:25:14.397Z,20.40
2023-05-20T01:27:41.020Z,21.80
2023-05-20T01:30:08.783Z,21.20
2023-05-20T01:32:41.080Z,22.00
2023-05-20T01:35:08.913Z,21.40
2023-05-20T01:37:40.064Z,24.30
2023-05-20T01:40:09.492Z,22.90
2023-05-20T01:42:36.629Z,26.90
2023-05-20T01:45:04.590Z,24.60
2023-05-20T01:47:31.325Z,27.80
2023-05-20T01:49:57.915Z,29.10
2023-05-20T01:52:24.343Z,27.10
2023-05-20T01:54:53.437Z,25.30
2023-05-20T01:57:23.959Z,29.00
2023-05-20T01:59:50.755Z,28.50
2023-05-20T02:02:17.840Z,28.70
2023-05-20T02:04:51.341Z,24.40
2023-05-20T02:07:19.105Z,23.40
2023-05-20T02:09:46.463Z,29.70
2023-05-20T02:12:16.731Z,29.20
2023-05-20T02:14:48.068Z,27.60
2023-05-20T02:17:16.741Z,31.50
2023-05-20T02:19:45.666Z,30.30
2023-05-20T02:22:12.243Z,29.90
2023-05-20T02:24:39.028Z,28.90
2023-05-20T02:27:06.360Z,26.90
2023-05-20T02:29:33.042Z,31.40
2023-05-20T02:31:59.606Z,31.10
2023-05-20T02:34:28.123Z,28.40
2023-05-20T02:36:54.698Z,29.50
2023-05-20T02:39:21.125Z,28.40
2023-05-20T02:41:47.818Z,31.10
2023-05-20T02:44:14.673Z,26.20
2023-05-20T02:46:41.400Z,29.00
2023-05-20T02:49:07.838Z,27.30
2023-05-20T02:51:34.321Z,30.70
2023-05-20T02:54:00.947Z,32.10
2023-05-20T02:56:28.631Z,29.30
2023-05-20T02:58:55.096Z,27.80
2023-05-20T03:01:21.988Z,31.90
2023-05-20T03:03:48.462Z,31.00
2023-05-20T03:06:14.985Z,26.40
2023-05-20T03:08:42.766Z,31.60
2023-05-20T03:11:09.310Z,29.10
2023-05-20T03:13:35.904Z,26.30
2023-05-20T03:16:02.641Z,26.80
2023-05-20T03:18:29.581Z,27.30
2023-05-20T03:20:56.283Z,26.60
2023-05-20T03:23:22.693Z,28.30
2023-05-20T03:25:49.107Z,24.90
2023-05-20T03:28:15.798Z,26.40
2023-05-20T03:30:42.336Z,27.40
2023-05-20T03:33:08.795Z,27.60
2023-05-20T03:35:35.736Z,25.70
2023-05-20T03:38:02.452Z,26.20
2023-05-20T03:40:28.907Z,27.20
2023-05-20T03:42:55.584Z,26.90
2023-05-20T03:45:22.056Z,28.30
2023-05-20T03:47:48.547Z,29.40
2023-05-20T03:50:15.050Z,24.90
2023-05-20T03:52:41.466Z,27.10
2023-05-20T03:55:08.922Z,28.20
2023-05-20T03:57:36.555Z,27.00
2023-05-20T04:00:10.255Z,26.20
2023-05-20T04:02:36.969Z,27.50
2023-05-20T04:05:03.913Z,30.50
2023-05-20T04:07:30.333Z,25.70
2023-05-20T04:09:56.847Z,26.00
2023-05-20T04:12:23.262Z,25.60
2023-05-20T04:14:50.054Z,25.40
2023-05-20T04:17:16.774Z,25.30
2023-05-20T04:19:44.504Z,25.30
2023-05-20T04:22:11.108Z,25.10
2023-05-20T04:24:38.053Z,28.90
2023-05-20T04:27:05.883Z,23.50
2023-05-20T04:29:34.297Z,22.70
2023-05-20T04:32:01.258Z,25.30
2023-05-20T04:34:30.571Z,24.80
2023-05-20T04:36:57.910Z,22.10
2023-05-20T04:39:24.346Z,24.00
2023-05-20T04:41:51.040Z,27.80
2023-05-20T04:44:17.478Z,22.80
2023-05-20T04:46:44.657Z,24.90
2023-05-20T04:49:11.090Z,22.90
2023-05-20T04:51:37.798Z,23.90
2023-05-20T04:54:04.235Z,25.70
2023-05-20T04:56:30.661Z,27.30
2023-05-20T04:58:57.192Z,25.70
2023-05-20T05:01:23.623Z,27.20
2023-05-20T05:03:50.128Z,24.00
2023-05-20T05:06:16.642Z,23.30
2023-05-20T05:08:43.074Z,25.80
2023-05-20T05:11:09.521Z,24.90
2023-05-20T05:13:36.063Z,26.60
2023-05-20T05:16:03.423Z,23.80
2023-05-20T05:18:30.304Z,25.20
2023-05-20T05:21:04.753Z,32.30
2023-05-20T05:23:32.134Z,24.70
2023-05-20T05:25:59.180Z,23.90
2023-05-20T05:28:26.100Z,20.20
2023-05-20T05:30:55.997Z,24.20
2023-05-20T05:33:22.681Z,23.40
2023-05-20T05:35:50.031Z,22.80
2023-05-20T05:38:16.916Z,22.90
2023-05-20T05:40:43.319Z,19.00
2023-05-20T05:43:09.840Z,22.20
2023-05-20T05:45:36.376Z,21.80
2023-05-20T05:48:02.900Z,21.30
2023-05-20T05:50:29.385Z,23.00
2023-05-20T05:52:55.796Z,21.60
2023-05-20T05:55:23.754Z,18.60
2023-05-20T05:57:50.247Z,18.70
2023-05-20T06:00:17.644Z,18.10
2023-05-20T06:02:44.446Z,21.20
2023-05-20T06:05:11.287Z,21.20
2023-05-20T06:07:37.709Z,18.20
2023-05-20T06:10:04.774Z,18.70
2023-05-20T06:12:31.251Z,20.70
2023-05-20T06:14:57.666Z,20.60
2023-05-20T06:17:24.136Z,19.20
2023-05-20T06:19:50.599Z,18.70
2023-05-20T06:22:17.059Z,20.40
2023-05-20T06:24:43.691Z,18.40
2023-05-20T06:27:10.094Z,18.50
2023-05-20T06:29:36.535Z,19.90
2023-05-20T06:32:03.100Z,19.30
2023-05-20T06:34:29.536Z,19.90
2023-05-20T06:36:56.110Z,20.60
2023-05-20T06:39:22.664Z,19.10
2023-05-20T06:41:49.183Z,20.00
2023-05-20T06:44:15.821Z,20.40
2023-05-20T06:46:42.399Z,20.00
2023-05-20T06:49:09.359Z,18.10
2023-05-20T06:51:35.870Z,16.50
2023-05-20T06:54:02.313Z,17.30
2023-05-20T06:56:28.847Z,15.50
2023-05-20T06:58:55.520Z,18.00
2023-05-20T07:01:21.979Z,15.20
2023-05-20T07:03:48.531Z,14.30
2023-05-20T07:06:14.997Z,15.20
2023-05-20T07:08:41.504Z,16.40
2023-05-20T07:11:08.315Z,16.80
2023-05-20T07:13:35.065Z,14.00
2023-05-20T07:16:01.733Z,14.60
2023-05-20T07:18:28.509Z,14.30
2023-05-20T07:20:56.888Z,18.00
2023-05-20T07:23:24.238Z,16.00
2023-05-20T07:25:51.893Z,14.30
2023-05-20T07:28:20.693Z,14.50
2023-05-20T07:30:50.313Z,13.80
2023-05-20T07:33:18.002Z,16.00
2023-05-20T07:35:45.938Z,13.70
2023-05-20T07:38:12.781Z,13.40
2023-05-20T07:40:42.756Z,13.70
2023-05-20T07:43:09.502Z,15.40
2023-05-20T07:45:39.683Z,12.60
2023-05-20T07:48:08.697Z,15.10
2023-05-20T07:50:35.414Z,16.00
2023-05-20T07:53:02.129Z,15.30
2023-05-20T07:55:28.725Z,15.00
2023-05-20T07:57:55.349Z,13.40
2023-05-20T08:00:21.994Z,15.80
2023-05-20T08:02:48.550Z,15.30
2023-05-20T08:05:15.348Z,16.70
2023-05-20T08:07:41.806Z,15.40
2023-05-20T08:10:09.307Z,14.90
2023-05-20T08:12:35.895Z,17.30
2023-05-20T08:15:02.472Z,14.00
2023-05-20T08:17:28.930Z,15.20
2023-05-20T08:19:55.684Z,15.00
2023-05-20T08:22:22.129Z,12.80
2023-05-20T08:24:48.559Z,14.40
2023-05-20T08:27:15.007Z,18.40
2023-05-20T08:29:41.480Z,15.90
2023-05-20T08:32:08.039Z,15.20
2023-05-20T08:34:35.191Z,16.60
2023-05-20T08:37:01.716Z,15.20
2023-05-20T08:39:28.251Z,14.90
2023-05-20T08:41:54.701Z,14.00
2023-05-20T08:44:22.762Z,16.60
2023-05-20T08:46:51.156Z,13.90
2023-05-20T08:49:18.041Z,14.90
2023-05-20T08:51:46.205Z,15.50
2023-05-20T08:54:16.780Z,16.60
2023-05-20T08:56:44.348Z,15.00
2023-05-20T08:59:11.100Z,14.60
2023-05-20T09:01:43.509Z,16.50
2023-05-20T09:04:10.013Z,14.60
2023-05-20T09:06:44.945Z,16.40
2023-05-20T09:09:13.362Z,14.90
2023-05-20T09:11:42.087Z,15.40
2023-05-20T09:14:09.306Z,17.50
2023-05-20T09:16:35.998Z,16.80
2023-05-20T09:19:06.314Z,15.00
2023-05-20T09:21:33.215Z,17.40
2023-05-20T09:24:02.434Z,16.50
2023-05-20T09:26:30.113Z,14.50
2023-05-20T09:28:57.924Z,16.30
2023-05-20T09:31:35.532Z,16.20
2023-05-20T09:34:03.353Z,18.70
2023-05-20T09:36:40.424Z,19.30
2023-05-20T09:39:12.730Z,16.40
2023-05-20T09:41:55.643Z,17.30
2023-05-20T09:44:23.554Z,16.20
2023-05-20T09:46:51.146Z,17.10
2023-05-20T09:49:19.184Z,22.10
2023-05-20T09:51:46.792Z,16.30
2023-05-20T09:54:14.106Z,17.80
2023-05-20T09:56:41.894Z,15.40
2023-05-20T09:59:11.551Z,16.70
2023-05-20T10:01:38.105Z,18.50
2023-05-20T10:04:08.376Z,16.20
2023-05-20T10:06:57.330Z,16.90
2023-05-20T10:09:45.079Z,18.40
2023-05-20T10:12:38.623Z,16.00
2023-05-20T10:15:26.153Z,15.60
2023-05-20T10:18:25.755Z,15.60
2023-05-20T10:20:52.278Z,15.10
2023-05-20T10:23:29.681Z,16.70
2023-05-20T10:25:59.141Z,17.00
2023-05-20T10:28:43.886Z,15.70
2023-05-20T10:31:23.220Z,16.30
2023-05-20T10:33:54.037Z,15.60
2023-05-20T10:36:30.602Z,15.30
2023-05-20T10:39:00.721Z,15.10
2023-05-20T10:41:30.819Z,15.50
2023-05-20T10:44:08.384Z,16.10
2023-05-20T10:46:53.885Z,13.50
2023-05-20T10:49:26.892Z,13.30
2023-05-20T10:51:54.220Z,15.00
2023-05-20T10:54:22.818Z,14.90
2023-05-20T10:56:54.063Z,15.00
2023-05-20T10:59:24.173Z,14.60
2023-05-20T11:01:51.036Z,12.70
2023-05-20T11:04:22.406Z,14.70
2023-05-20T11:06:56.001Z,14.20
2023-05-20T11:09:23.093Z,15.60
2023-05-20T11:11:53.965Z,13.40
2023-05-20T11:14:21.866Z,15.70
2023-05-20T11:16:54.129Z,15.10
2023-05-20T11:19:21.500Z,14.30
2023-05-20T11:21:48.823Z,13.20
2023-05-20T11:24:25.656Z,15.10
2023-05-20T11:26:57.506Z,15.70
2023-05-20T11:29:27.237Z,14.70
2023-05-20T11:31:53.782Z,13.80
2023-05-20T11:34:26.884Z,15.30
2023-05-20T11:37:01.003Z,14.80
2023-05-20T11:39:30.470Z,14.70
2023-05-20T11:41:58.910Z,14.30
2023-05-20T11:44:26.423Z,14.10
2023-05-20T11:47:01.449Z,14.50
2023-05-20T11:49:28.718Z,13.70
2023-05-20T11:51:56.780Z,11.90
2023-05-20T11:54:25.345Z,12.50
2023-05-20T11:56:54.680Z,13.70
2023-05-20T11:59:24.445Z,14.60
2023-05-20T12:01:51.032Z,11.10
2023-05-20T12:04:18.407Z,14.40
2023-05-20T12:06:45.734Z,13.20
2023-05-20T12:09:13.940Z,12.70
2023-05-20T12:11:41.441Z,10.40
2023-05-20T12:14:08.914Z,13.40
2023-05-20T12:16:36.852Z,11.50
2023-05-20T12:19:04.161Z,12.70
2023-05-20T12:21:31.866Z,12.60
2023-05-20T12:24:02.039Z,13.80
2023-05-20T12:26:29.722Z,11.60
2023-05-20T12:28:56.968Z,12.10
2023-05-20T12:31:24.420Z,14.40
2023-05-20T12:33:50.944Z,13.90
2023-05-20T12:36:17.536Z,11.90
2023-05-20T12:38:44.045Z,12.90
2023-05-20T12:41:10.583Z,11.50
2023-05-20T12:43:37.618Z,11.00
2023-05-20T12:46:05.147Z,10.70
2023-05-20T12:48:32.011Z,12.80
2023-05-20T12:50:59.027Z,12.00
2023-05-20T12:53:25.516Z,11.80
2023-05-20T12:55:52.484Z,12.10
2023-05-20T12:58:18.949Z,13.10
2023-05-20T13:00:45.446Z,10.80
2023-05-20T13:03:12.150Z,13.60
2023-05-20T13:05:38.676Z,14.70
2023-05-20T13:08:05.543Z,14.30
2023-05-20T13:10:35.247Z,11.70
2023-05-20T13:13:01.823Z,13.20
2023-05-20T13:15:28.274Z,12.10
2023-05-20T13:17:54.719Z,13.10
2023-05-20T13:20:21.513Z,11.00
2023-05-20T13:22:48.690Z,11.80
2023-05-20T13:25:15.342Z,11.60
2023-05-20T13:27:42.656Z,11.10
2023-05-20T13:30:09.643Z,12.00
2023-05-20T13:32:36.151Z,11.60
2023-05-20T13:35:02.610Z,12.40
2023-05-20T13:37:29.985Z,10.00
2023-05-20T13:39:56.981Z,12.90
2023-05-20T13:42:23.812Z,11.60
2023-05-20T13:44:50.261Z,11.20
2023-05-20T13:47:16.764Z,10.70
2023-05-20T13:49:43.357Z,11.50
2023-05-20T13:52:09.927Z,11.00
2023-05-20T13:54:37.477Z,11.70
2023-05-20T13:57:07.853Z,12.70
2023-05-20T13:59:35.045Z,13.40
2023-05-20T14:02:02.261Z,12.00
2023-05-20T14:04:29.115Z,11.70
2023-05-20T14:06:55.841Z,11.90
2023-05-20T14:09:22.339Z,10.30
2023-05-20T14:11:48.843Z,12.60
2023-05-20T14:14:15.358Z,12.40
2023-05-20T14:16:42.105Z,10.10
2023-05-20T14:19:09.266Z,11.30
2023-05-20T14:21:36.113Z,11.90
2023-05-20T14:24:02.832Z,11.20
2023-05-20T14:26:29.304Z,10.00
2023-05-20T14:28:55.933Z,11.30
2023-05-20T14:31:22.400Z,9.60
2023-05-20T14:33:49.292Z,10.00
2023-05-20T14:36:16.009Z,13.10
2023-05-20T14:38:42.483Z,11.20
2023-05-20T14:41:09.084Z,11.20
2023-05-20T14:43:36.698Z,12.50
2023-05-20T14:46:06.301Z,11.80
2023-05-20T14:48:32.943Z,10.80
2023-05-20T14:50:59.444Z,10.40
2023-05-20T14:53:26.021Z,11.30
2023-05-20T14:55:52.510Z,9.70
2023-05-20T14:58:18.963Z,11.70
2023-05-20T15:00:45.406Z,12.20
2023-05-20T15:03:12.420Z,9.80
2023-05-20T15:05:39.151Z,10.50
2023-05-20T15:08:05.992Z,10.80
2023-05-20T15:10:32.548Z,11.50
2023-05-20T15:12:59.182Z,14.30
2023-05-20T15:15:25.852Z,11.90
2023-05-20T15:17:52.881Z,10.50
2023-05-20T15:20:19.807Z,10.50
2023-05-20T15:22:48.000Z,9.70
2023-05-20T15:25:15.074Z,9.90
2023-05-20T15:27:42.288Z,9.40
2023-05-20T15:30:10.437Z,11.50
2023-05-20T15:32:37.084Z,8.90
2023-05-20T15:35:04.407Z,10.40
2023-05-20T15:37:30.966Z,9.10
2023-05-20T15:39:57.408Z,10.90
2023-05-20T15:42:24.958Z,11.20
2023-05-20T15:44:51.636Z,9.70
2023-05-20T15:47:18.145Z,11.20
2023-05-20T15:49:44.672Z,10.60
2023-05-20T15:52:11.372Z,9.60
2023-05-20T15:54:37.778Z,10.40
2023-05-20T15:57:05.009Z,11.20
2023-05-20T15:59:31.964Z,9.30
2023-05-20T16:01:59.182Z,10.50
2023-05-20T16:04:26.895Z,11.70
2023-05-20T16:06:53.425Z,10.80
2023-05-20T16:09:19.884Z,10.70
2023-05-20T16:11:46.422Z,10.10
2023-05-20T16:14:13.120Z,10.50
2023-05-20T16:16:39.688Z,10.00
2023-05-20T16:19:06.279Z,11.70
2023-05-20T16:21:32.830Z,10.00
2023-05-20T16:23:59.239Z,10.40
2023-05-20T16:26:26.133Z,11.50
2023-05-20T16:28:52.675Z,11.40
2023-05-20T16:31:19.493Z,12.20
2023-05-20T16:33:46.185Z,11.70
2023-05-20T16:36:12.748Z,11.40
2023-05-20T16:38:39.648Z,10.10
2023-05-20T16:41:06.534Z,9.40
2023-05-20T16:43:33.149Z,11.50
2023-05-20T16:45:59.691Z,12.50
2023-05-20T16:48:26.797Z,11.60
2023-05-20T16:50:53.299Z,9.60
2023-05-20T16:53:19.837Z,10.30
2023-05-20T16:55:47.294Z,11.10
2023-05-20T16:58:14.074Z,10.40
2023-05-20T17:00:40.957Z,10.80
2023-05-20T17:03:07.487Z,11.50
2023-05-20T17:05:34.088Z,10.30
2023-05-20T17:08:00.782Z,10.30
2023-05-20T17:10:29.480Z,10.10
2023-05-20T17:12:56.056Z,15.10
2023-05-20T17:15:23.484Z,11.60
2023-05-20T17:17:51.064Z,10.10
2023-05-20T17:20:17.713Z,10.10
2023-05-20T17:22:44.267Z,10.20
2023-05-20T17:25:11.215Z,11.20
2023-05-20T17:27:37.853Z,11.50
2023-05-20T17:30:04.987Z,12.00
2023-05-20T17:32:31.436Z,11.80
2023-05-20T17:34:57.930Z,14.10
2023-05-20T17:37:24.358Z,10.30
2023-05-20T17:39:50.851Z,12.10
2023-05-20T17:42:17.359Z,12.40
2023-05-20T17:44:43.851Z,11.90
2023-05-20T17:47:10.375Z,13.20
2023-05-20T17:49:36.861Z,12.10
2023-05-20T17:52:03.387Z,12.70
2023-05-20T17:54:30.037Z,14.10
2023-05-20T17:56:56.492Z,11.80
2023-05-20T17:59:23.008Z,13.30
2023-05-20T18:01:49.731Z,17.30
2023-05-20T18:04:16.763Z,16.00
2023-05-20T18:06:43.273Z,14.50
2023-05-20T18:09:10.229Z,15.50
2023-05-20T18:11:38.303Z,16.80
2023-05-20T18:14:04.760Z,14.20
2023-05-20T18:16:31.507Z,14.80
2023-05-20T18:18:58.315Z,14.00
2023-05-20T18:21:25.543Z,15.00
2023-05-20T18:23:52.036Z,13.20
2023-05-20T18:26:18.531Z,15.70
2023-05-20T18:28:45.047Z,12.90
2023-05-20T18:31:11.954Z,13.10
2023-05-20T18:33:38.479Z,13.00
2023-05-20T18:36:06.051Z,13.30
2023-05-20T18:38:33.718Z,15.10
2023-05-20T18:41:00.475Z,12.40
2023-05-20T18:43:27.282Z,12.00
2023-05-20T18:45:53.832Z,13.10
2023-05-20T18:48:26.760Z,13.30
2023-05-20T18:50:58.511Z,15.10
2023-05-20T18:53:24.992Z,14.50
2023-05-20T18:55:51.418Z,13.60
2023-05-20T18:58:17.912Z,12.90
2023-05-20T19:00:44.890Z,15.40
2023-05-20T19:03:11.549Z,14.10
2023-05-20T19:05:38.630Z,16.30
2023-05-20T19:08:05.870Z,14.60
2023-05-20T19:10:33.065Z,15.70
2023-05-20T19:12:59.846Z,14.50
2023-05-20T19:15:26.577Z,16.90
2023-05-20T19:17:53.090Z,14.40
2023-05-20T19:20:19.654Z,15.90
2023-05-20T19:22:46.157Z,15.30
2023-05-20T19:25:12.717Z,13.90
2023-05-20T19:27:39.201Z,14.70
2023-05-20T19:30:08.467Z,14.10
2023-05-20T19:32:36.565Z,16.30
2023-05-20T19:35:05.928Z,14.70
2023-05-20T19:37:32.573Z,14.00
2023-05-20T19:39:59.067Z,16.50
2023-05-20T19:42:25.573Z,14.10
2023-05-20T19:44:52.832Z,15.00
2023-05-20T19:47:19.495Z,16.70
2023-05-20T19:49:46.091Z,14.80
2023-05-20T19:52:12.876Z,14.90
2023-05-20T19:54:41.626Z,14.70
2023-05-20T19:57:08.183Z,15.40
2023-05-20T19:59:36.314Z,16.40
2023-05-20T20:02:03.907Z,15.40
2023-05-20T20:04:30.548Z,15.20
2023-05-20T20:06:56.993Z,13.90
2023-05-20T20:09:25.027Z,16.00
2023-05-20T20:11:51.534Z,16.30
2023-05-20T20:14:18.134Z,16.10
2023-05-20T20:16:48.582Z,16.80
2023-05-20T20:19:18.688Z,16.40
2023-05-20T20:21:46.392Z,18.60
2023-05-20T20:24:12.920Z,17.10
2023-05-20T20:26:39.390Z,15.40
2023-05-20T20:29:07.616Z,17.90
2023-05-20T20:31:34.140Z,16.40
2023-05-20T20:34:00.643Z,15.80
2023-05-20T20:36:31.785Z,15.50
2023-05-20T20:38:59.434Z,13.40
2023-05-20T20:41:25.950Z,17.70
2023-05-20T20:43:52.442Z,16.30
2023-05-20T20:46:18.886Z,15.90
2023-05-20T20:48:48.046Z,15.30
2023-05-20T20:51:16.400Z,15.60
2023-05-20T20:53:46.186Z,17.50
2023-05-20T20:56:12.823Z,16.90
2023-05-20T20:58:39.834Z,18.90
2023-05-20T21:01:06.901Z,18.50
2023-05-20T21:03:40.611Z,13.50
2023-05-20T21:06:07.961Z,15.70
2023-05-20T21:08:34.747Z,16.60
2023-05-20T21:11:01.460Z,18.90
2023-05-20T21:13:30.336Z,19.40
2023-05-20T21:15:56.922Z,17.30
2023-05-20T21:18:23.930Z,16.30
2023-05-20T21:20:55.142Z,17.90
2023-05-20T21:23:23.018Z,15.40
2023-05-20T21:25:50.589Z,13.30
2023-05-20T21:28:17.239Z,14.90
2023-05-20T21:30:44.922Z,15.90
2023-05-20T21:33:11.557Z,16.10
2023-05-20T21:35:38.182Z,16.80
2023-05-20T21:38:04.839Z,14.90
2023-05-20T21:40:31.480Z,15.00
2023-05-20T21:42:58.079Z,14.70
2023-05-20T21:45:24.518Z,14.00
2023-05-20T21:47:51.085Z,13.90
2023-05-20T21:50:17.577Z,14.60
2023-05-20T21:52:44.082Z,15.40
2023-05-20T21:55:11.182Z,14.20
2023-05-20T21:57:37.820Z,14.90
2023-05-20T22:00:10.396Z,16.90
2023-05-20T22:02:37.569Z,14.90
2023-05-20T22:05:04.868Z,15.20
2023-05-20T22:07:31.729Z,13.70
2023-05-20T22:09:58.334Z,13.30
2023-05-20T22:12:25.393Z,16.00
2023-05-20T22:14:51.824Z,13.30
2023-05-20T22:17:18.357Z,14.10
2023-05-20T22:19:44.834Z,13.40
2023-05-20T22:22:11.270Z,13.80
2023-05-20T22:24:37.708Z,13.00
2023-05-20T22:27:04.742Z,13.00
2023-05-20T22:29:32.455Z,11.90
2023-05-20T22:31:59.532Z,11.70
2023-05-20T22:34:26.121Z,12.10
2023-05-20T22:36:53.913Z,14.60
2023-05-20T22:39:21.555Z,11.90
2023-05-20T22:41:47.988Z,10.90
2023-05-20T22:44:14.760Z,11.10
2023-05-20T22:46:41.317Z,9.90
2023-05-20T22:49:07.845Z,10.30
2023-05-20T22:51:35.140Z,9.70
2023-05-20T22:54:01.691Z,9.50
2023-05-20T22:56:29.575Z,9.70
2023-05-20T22:58:55.955Z,11.60
2023-05-20T23:01:22.478Z,10.90
2023-05-20T23:03:49.225Z,10.70
2023-05-20T23:06:15.759Z,10.40
2023-05-20T23:08:44.384Z,9.50
2023-05-20T23:11:11.176Z,9.40
2023-05-20T23:13:37.714Z,9.50
2023-05-20T23:16:06.426Z,8.40
2023-05-20T23:18:33.285Z,8.80
2023-05-20T23:20:59.792Z,9.10
2023-05-20T23:23:31.064Z,9.60
2023-05-20T23:25:58.796Z,8.90
2023-05-20T23:28:25.346Z,8.60
2023-05-20T23:30:51.835Z,10.70
2023-05-20T23:33:22.899Z,8.70
2023-05-20T23:35:51.564Z,9.80
2023-05-20T23:38:18.334Z,8.90
2023-05-20T23:40:44.818Z,10.10
2023-05-20T23:43:12.391Z,8.30
2023-05-20T23:45:38.985Z,9.80
2023-05-20T23:48:06.959Z,8.90
2023-05-20T23:50:33.433Z,9.10
2023-05-20T23:52:59.956Z,9.40
2023-05-20T23:55:28.191Z,11.90
2023-05-20T23:57:54.571Z,8.90
